sensor_id;sensor_type;location;lat;lon;timestamp;P1;durP1;ratioP1;P2;durP2;ratioP2
44722;SDS011;30451;48.638;10.624;2022-10-16T00:01:12;3.92;;;2.33;;
44722;SDS011;30451;48.638;10.624;2022-10-16T00:03:38;5.03;;;2.67;;
44722;SDS011;30451;48.638;10.624;2022-10-16T00:06:05;4.35;;;2.20;;
44722;SDS011;30451;48.638;10.624;2022-10-16T00:08:31;4.65;;;2.63;;
44722;SDS011;30451;48.638;10.624;2022-10-16T00:11:01;3.25;;;2.30;;
44722;SDS011;30451;48.638;10.624;2022-10-16T00:13:31;5.05;;;2.13;;
44722;SDS011;30451;48.638;10.624;2022-10-16T00:15:58;4.60;;;2.53;;
44722;SDS011;30451;48.638;10.624;2022-10-16T00:18:24;3.70;;;2.45;;
44722;SDS011;30451;48.638;10.624;2022-10-16T00:20:51;4.07;;;2.30;;
44722;SDS011;30451;48.638;10.624;2022-10-16T00:23:17;4.35;;;2.50;;
44722;SDS011;30451;48.638;10.624;2022-10-16T00:25:42;3.78;;;2.40;;
44722;SDS011;30451;48.638;10.624;2022-10-16T00:28:08;3.92;;;2.20;;
44722;SDS011;30451;48.638;10.624;2022-10-16T00:30:35;3.92;;;2.38;;
44722;SDS011;30451;48.638;10.624;2022-10-16T00:33:03;3.78;;;2.47;;
44722;SDS011;30451;48.638;10.624;2022-10-16T00:35:30;3.95;;;2.58;;
44722;SDS011;30451;48.638;10.624;2022-10-16T00:37:55;4.00;;;2.40;;
44722;SDS011;30451;48.638;10.624;2022-10-16T00:40:21;3.42;;;2.08;;
44722;SDS011;30451;48.638;10.624;2022-10-16T00:42:47;3.53;;;2.35;;
44722;SDS011;30451;48.638;10.624;2022-10-16T00:45:12;3.47;;;2.05;;
44722;SDS011;30451;48.638;10.624;2022-10-16T00:47:42;3.67;;;2.10;;
44722;SDS011;30451;48.638;10.624;2022-10-16T00:52:51;4.20;;;2.38;;
44722;SDS011;30451;48.638;10.624;2022-10-16T00:55:17;3.22;;;2.03;;
44722;SDS011;30451;48.638;10.624;2022-10-16T00:57:43;3.75;;;2.28;;
44722;SDS011;30451;48.638;10.624;2022-10-16T01:00:11;3.30;;;2.08;;
44722;SDS011;30451;48.638;10.624;2022-10-16T01:05:05;3.20;;;1.83;;
44722;SDS011;30451;48.638;10.624;2022-10-16T01:07:46;3.05;;;1.98;;
44722;SDS011;30451;48.638;10.624;2022-10-16T01:17:51;4.22;;;2.05;;
44722;SDS011;30451;48.638;10.624;2022-10-16T01:20:26;2.88;;;1.90;;
44722;SDS011;30451;48.638;10.624;2022-10-16T01:29:02;3.45;;;1.90;;
44722;SDS011;30451;48.638;10.624;2022-10-16T01:31:29;2.90;;;1.77;;
44722;SDS011;30451;48.638;10.624;2022-10-16T01:36:35;2.73;;;1.80;;
44722;SDS011;30451;48.638;10.624;2022-10-16T01:39:05;3.10;;;1.95;;
44722;SDS011;30451;48.638;10.624;2022-10-16T01:41:39;2.53;;;1.50;;
44722;SDS011;30451;48.638;10.624;2022-10-16T01:44:11;2.67;;;1.80;;
44722;SDS011;30451;48.638;10.624;2022-10-16T01:46:43;2.90;;;1.80;;
44722;SDS011;30451;48.638;10.624;2022-10-16T01:49:13;3.20;;;1.70;;
44722;SDS011;30451;48.638;10.624;2022-10-16T01:51:39;3.28;;;1.90;;
44722;SDS011;30451;48.638;10.624;2022-10-16T01:54:07;3.33;;;1.65;;
44722;SDS011;30451;48.638;10.624;2022-10-16T01:56:33;3.85;;;1.88;;
44722;SDS011;30451;48.638;10.624;2022-10-16T01:59:02;2.75;;;1.70;;
44722;SDS011;30451;48.638;10.624;2022-10-16T02:01:32;3.15;;;1.90;;
44722;SDS011;30451;48.638;10.624;2022-10-16T02:04:01;3.05;;;1.90;;
44722;SDS011;30451;48.638;10.624;2022-10-16T02:06:41;2.58;;;1.70;;
44722;SDS011;30451;48.638;10.624;2022-10-16T02:09:06;2.72;;;1.92;;
44722;SDS011;30451;48.638;10.624;2022-10-16T02:11:32;3.05;;;1.80;;
44722;SDS011;30451;48.638;10.624;2022-10-16T02:14:05;2.50;;;1.60;;
44722;SDS011;30451;48.638;10.624;2022-10-16T02:16:35;3.50;;;1.60;;
44722;SDS011;30451;48.638;10.624;2022-10-16T02:19:03;2.67;;;1.80;;
44722;SDS011;30451;48.638;10.624;2022-10-16T02:21:31;3.17;;;1.80;;
44722;SDS011;30451;48.638;10.624;2022-10-16T02:24:03;3.10;;;1.80;;
44722;SDS011;30451;48.638;10.624;2022-10-16T02:26:49;3.42;;;1.85;;
44722;SDS011;30451;48.638;10.624;2022-10-16T02:29:35;3.13;;;2.08;;
44722;SDS011;30451;48.638;10.624;2022-10-16T02:32:10;3.17;;;1.90;;
44722;SDS011;30451;48.638;10.624;2022-10-16T02:34:39;3.25;;;1.90;;
44722;SDS011;30451;48.638;10.624;2022-10-16T02:37:05;2.53;;;1.73;;
44722;SDS011;30451;48.638;10.624;2022-10-16T02:39:32;3.15;;;1.90;;
44722;SDS011;30451;48.638;10.624;2022-10-16T02:41:58;2.72;;;1.80;;
44722;SDS011;30451;48.638;10.624;2022-10-16T02:44:24;3.60;;;1.70;;
44722;SDS011;30451;48.638;10.624;2022-10-16T02:46:50;3.33;;;1.80;;
44722;SDS011;30451;48.638;10.624;2022-10-16T02:49:15;3.42;;;1.90;;
44722;SDS011;30451;48.638;10.624;2022-10-16T02:51:41;3.00;;;1.80;;
44722;SDS011;30451;48.638;10.624;2022-10-16T02:54:06;3.17;;;1.90;;
44722;SDS011;30451;48.638;10.624;2022-10-16T02:56:32;2.75;;;1.88;;
44722;SDS011;30451;48.638;10.624;2022-10-16T02:58:58;2.78;;;1.88;;
44722;SDS011;30451;48.638;10.624;2022-10-16T03:01:23;2.75;;;1.80;;
44722;SDS011;30451;48.638;10.624;2022-10-16T03:03:49;2.60;;;1.63;;
44722;SDS011;30451;48.638;10.624;2022-10-16T03:06:15;2.90;;;1.90;;
44722;SDS011;30451;48.638;10.624;2022-10-16T03:08:41;3.90;;;2.08;;
44722;SDS011;30451;48.638;10.624;2022-10-16T03:11:06;2.30;;;1.70;;
44722;SDS011;30451;48.638;10.624;2022-10-16T03:13:32;2.30;;;1.60;;
44722;SDS011;30451;48.638;10.624;2022-10-16T03:15:58;2.63;;;1.60;;
44722;SDS011;30451;48.638;10.624;2022-10-16T03:18:23;3.40;;;1.80;;
44722;SDS011;30451;48.638;10.624;2022-10-16T03:20:49;2.88;;;1.67;;
44722;SDS011;30451;48.638;10.624;2022-10-16T03:23:15;3.13;;;1.85;;
44722;SDS011;30451;48.638;10.624;2022-10-16T03:25:40;2.97;;;1.67;;
44722;SDS011;30451;48.638;10.624;2022-10-16T03:28:06;2.78;;;2.00;;
44722;SDS011;30451;48.638;10.624;2022-10-16T03:30:32;2.40;;;1.52;;
44722;SDS011;30451;48.638;10.624;2022-10-16T03:32:57;2.80;;;1.70;;
44722;SDS011;30451;48.638;10.624;2022-10-16T03:35:23;2.60;;;1.60;;
44722;SDS011;30451;48.638;10.624;2022-10-16T03:37:49;2.63;;;1.58;;
44722;SDS011;30451;48.638;10.624;2022-10-16T03:40:16;2.63;;;1.60;;
44722;SDS011;30451;48.638;10.624;2022-10-16T03:42:42;2.53;;;1.50;;
44722;SDS011;30451;48.638;10.624;2022-10-16T03:45:08;2.50;;;1.60;;
44722;SDS011;30451;48.638;10.624;2022-10-16T03:47:35;2.50;;;1.70;;
44722;SDS011;30451;48.638;10.624;2022-10-16T03:50:01;2.47;;;1.55;;
44722;SDS011;30451;48.638;10.624;2022-10-16T03:52:26;2.50;;;1.77;;
44722;SDS011;30451;48.638;10.624;2022-10-16T03:54:52;2.20;;;1.50;;
44722;SDS011;30451;48.638;10.624;2022-10-16T03:57:18;3.05;;;1.70;;
44722;SDS011;30451;48.638;10.624;2022-10-16T03:59:43;2.75;;;1.63;;
44722;SDS011;30451;48.638;10.624;2022-10-16T04:02:09;2.33;;;1.50;;
44722;SDS011;30451;48.638;10.624;2022-10-16T04:04:35;2.47;;;1.60;;
44722;SDS011;30451;48.638;10.624;2022-10-16T04:07:00;2.60;;;1.70;;
44722;SDS011;30451;48.638;10.624;2022-10-16T04:09:26;2.25;;;1.52;;
44722;SDS011;30451;48.638;10.624;2022-10-16T04:11:52;2.60;;;1.55;;
44722;SDS011;30451;48.638;10.624;2022-10-16T04:14:18;2.50;;;1.63;;
44722;SDS011;30451;48.638;10.624;2022-10-16T04:16:43;2.17;;;1.40;;
44722;SDS011;30451;48.638;10.624;2022-10-16T04:19:09;2.60;;;1.60;;
44722;SDS011;30451;48.638;10.624;2022-10-16T04:21:36;2.25;;;1.48;;
44722;SDS011;30451;48.638;10.624;2022-10-16T04:24:02;2.40;;;1.50;;
44722;SDS011;30451;48.638;10.624;2022-10-16T04:26:27;2.58;;;1.63;;
44722;SDS011;30451;48.638;10.624;2022-10-16T04:28:53;2.13;;;1.40;;
44722;SDS011;30451;48.638;10.624;2022-10-16T04:31:19;2.17;;;1.38;;
44722;SDS011;30451;48.638;10.624;2022-10-16T04:33:45;2.35;;;1.50;;
44722;SDS011;30451;48.638;10.624;2022-10-16T04:36:11;2.08;;;1.38;;
44722;SDS011;30451;48.638;10.624;2022-10-16T04:38:37;2.75;;;1.58;;
44722;SDS011;30451;48.638;10.624;2022-10-16T04:41:04;2.55;;;1.40;;
44722;SDS011;30451;48.638;10.624;2022-10-16T04:43:31;1.90;;;1.30;;
44722;SDS011;30451;48.638;10.624;2022-10-16T04:45:56;2.40;;;1.52;;
44722;SDS011;30451;48.638;10.624;2022-10-16T04:48:22;2.65;;;1.60;;
44722;SDS011;30451;48.638;10.624;2022-10-16T04:50:48;2.40;;;1.60;;
44722;SDS011;30451;48.638;10.624;2022-10-16T04:53:13;2.97;;;1.58;;
44722;SDS011;30451;48.638;10.624;2022-10-16T04:55:39;2.45;;;1.55;;
44722;SDS011;30451;48.638;10.624;2022-10-16T04:58:06;2.55;;;1.33;;
44722;SDS011;30451;48.638;10.624;2022-10-16T05:00:32;2.35;;;1.40;;
44722;SDS011;30451;48.638;10.624;2022-10-16T05:02:58;1.95;;;1.50;;
44722;SDS011;30451;48.638;10.624;2022-10-16T05:05:25;1.80;;;1.25;;
44722;SDS011;30451;48.638;10.624;2022-10-16T05:07:51;2.88;;;1.75;;
44722;SDS011;30451;48.638;10.624;2022-10-16T05:10:17;2.00;;;1.60;;
44722;SDS011;30451;48.638;10.624;2022-10-16T05:12:43;1.75;;;1.27;;
44722;SDS011;30451;48.638;10.624;2022-10-16T05:15:08;2.20;;;1.30;;
44722;SDS011;30451;48.638;10.624;2022-10-16T05:17:34;1.83;;;1.25;;
44722;SDS011;30451;48.638;10.624;2022-10-16T05:20:00;1.80;;;1.25;;
44722;SDS011;30451;48.638;10.624;2022-10-16T05:22:25;2.20;;;1.35;;
44722;SDS011;30451;48.638;10.624;2022-10-16T05:24:51;2.67;;;1.40;;
44722;SDS011;30451;48.638;10.624;2022-10-16T05:27:17;1.85;;;1.38;;
44722;SDS011;30451;48.638;10.624;2022-10-16T05:29:45;2.15;;;1.40;;
44722;SDS011;30451;48.638;10.624;2022-10-16T05:32:12;3.00;;;1.58;;
44722;SDS011;30451;48.638;10.624;2022-10-16T05:34:39;2.42;;;1.50;;
44722;SDS011;30451;48.638;10.624;2022-10-16T05:37:04;2.42;;;1.52;;
44722;SDS011;30451;48.638;10.624;2022-10-16T05:39:30;2.08;;;1.40;;
44722;SDS011;30451;48.638;10.624;2022-10-16T05:41:56;2.47;;;1.45;;
44722;SDS011;30451;48.638;10.624;2022-10-16T05:44:22;1.90;;;1.38;;
44722;SDS011;30451;48.638;10.624;2022-10-16T05:46:47;2.10;;;1.20;;
44722;SDS011;30451;48.638;10.624;2022-10-16T05:49:13;2.75;;;1.45;;
44722;SDS011;30451;48.638;10.624;2022-10-16T05:51:39;2.20;;;1.45;;
44722;SDS011;30451;48.638;10.624;2022-10-16T05:54:04;2.30;;;1.25;;
44722;SDS011;30451;48.638;10.624;2022-10-16T05:56:30;1.73;;;1.20;;
44722;SDS011;30451;48.638;10.624;2022-10-16T05:58:56;2.30;;;1.40;;
44722;SDS011;30451;48.638;10.624;2022-10-16T06:01:21;2.22;;;1.42;;
44722;SDS011;30451;48.638;10.624;2022-10-16T06:03:49;2.22;;;1.30;;
44722;SDS011;30451;48.638;10.624;2022-10-16T06:06:16;1.88;;;1.23;;
44722;SDS011;30451;48.638;10.624;2022-10-16T06:08:43;2.30;;;1.17;;
44722;SDS011;30451;48.638;10.624;2022-10-16T06:11:14;2.20;;;1.25;;
44722;SDS011;30451;48.638;10.624;2022-10-16T06:13:41;1.67;;;1.20;;
44722;SDS011;30451;48.638;10.624;2022-10-16T06:16:11;2.72;;;1.20;;
44722;SDS011;30451;48.638;10.624;2022-10-16T06:18:37;1.73;;;1.20;;
44722;SDS011;30451;48.638;10.624;2022-10-16T06:21:07;2.20;;;1.40;;
44722;SDS011;30451;48.638;10.624;2022-10-16T06:23:37;2.03;;;1.40;;
44722;SDS011;30451;48.638;10.624;2022-10-16T06:26:07;2.38;;;1.30;;
44722;SDS011;30451;48.638;10.624;2022-10-16T06:28:36;1.77;;;1.20;;
44722;SDS011;30451;48.638;10.624;2022-10-16T06:31:03;1.67;;;1.30;;
44722;SDS011;30451;48.638;10.624;2022-10-16T06:33:30;1.98;;;1.30;;
44722;SDS011;30451;48.638;10.624;2022-10-16T06:36:00;2.42;;;1.50;;
44722;SDS011;30451;48.638;10.624;2022-10-16T06:38:28;1.67;;;1.10;;
44722;SDS011;30451;48.638;10.624;2022-10-16T06:40:53;1.80;;;1.15;;
44722;SDS011;30451;48.638;10.624;2022-10-16T06:43:19;1.65;;;1.15;;
44722;SDS011;30451;48.638;10.624;2022-10-16T06:45:52;2.33;;;1.30;;
44722;SDS011;30451;48.638;10.624;2022-10-16T06:48:17;2.15;;;1.30;;
44722;SDS011;30451;48.638;10.624;2022-10-16T06:50:44;1.73;;;1.10;;
44722;SDS011;30451;48.638;10.624;2022-10-16T06:53:09;2.92;;;1.27;;
44722;SDS011;30451;48.638;10.624;2022-10-16T06:55:35;1.65;;;1.13;;
44722;SDS011;30451;48.638;10.624;2022-10-16T06:58:00;2.47;;;1.30;;
44722;SDS011;30451;48.638;10.624;2022-10-16T07:00:26;1.85;;;1.20;;
44722;SDS011;30451;48.638;10.624;2022-10-16T07:02:51;2.22;;;1.20;;
44722;SDS011;30451;48.638;10.624;2022-10-16T07:05:17;2.00;;;1.30;;
44722;SDS011;30451;48.638;10.624;2022-10-16T07:07:43;1.50;;;1.10;;
44722;SDS011;30451;48.638;10.624;2022-10-16T07:10:08;2.30;;;1.38;;
44722;SDS011;30451;48.638;10.624;2022-10-16T07:12:34;1.90;;;1.30;;
44722;SDS011;30451;48.638;10.624;2022-10-16T07:14:59;1.80;;;1.20;;
44722;SDS011;30451;48.638;10.624;2022-10-16T07:17:25;2.10;;;1.20;;
44722;SDS011;30451;48.638;10.624;2022-10-16T07:19:50;1.73;;;1.30;;
44722;SDS011;30451;48.638;10.624;2022-10-16T07:22:18;2.05;;;1.30;;
44722;SDS011;30451;48.638;10.624;2022-10-16T07:24:43;2.03;;;1.38;;
44722;SDS011;30451;48.638;10.624;2022-10-16T07:27:09;2.28;;;1.33;;
44722;SDS011;30451;48.638;10.624;2022-10-16T07:29:35;2.10;;;1.20;;
44722;SDS011;30451;48.638;10.624;2022-10-16T07:32:01;1.85;;;1.10;;
44722;SDS011;30451;48.638;10.624;2022-10-16T07:34:26;2.10;;;1.20;;
44722;SDS011;30451;48.638;10.624;2022-10-16T07:36:52;2.55;;;1.40;;
44722;SDS011;30451;48.638;10.624;2022-10-16T07:39:18;2.65;;;1.25;;
44722;SDS011;30451;48.638;10.624;2022-10-16T07:41:43;2.00;;;1.30;;
44722;SDS011;30451;48.638;10.624;2022-10-16T07:44:09;1.77;;;1.08;;
44722;SDS011;30451;48.638;10.624;2022-10-16T07:46:35;2.28;;;1.27;;
44722;SDS011;30451;48.638;10.624;2022-10-16T07:49:01;1.85;;;1.33;;
44722;SDS011;30451;48.638;10.624;2022-10-16T07:51:27;2.17;;;1.33;;
44722;SDS011;30451;48.638;10.624;2022-10-16T07:53:53;2.38;;;1.30;;
44722;SDS011;30451;48.638;10.624;2022-10-16T07:56:20;1.92;;;1.17;;
44722;SDS011;30451;48.638;10.624;2022-10-16T07:58:46;2.55;;;1.50;;
44722;SDS011;30451;48.638;10.624;2022-10-16T08:01:13;1.98;;;1.20;;
44722;SDS011;30451;48.638;10.624;2022-10-16T08:03:43;1.95;;;1.20;;
44722;SDS011;30451;48.638;10.624;2022-10-16T08:06:11;1.80;;;1.17;;
44722;SDS011;30451;48.638;10.624;2022-10-16T08:08:37;2.60;;;1.38;;
44722;SDS011;30451;48.638;10.624;2022-10-16T08:11:03;2.20;;;1.33;;
44722;SDS011;30451;48.638;10.624;2022-10-16T08:13:29;3.28;;;1.33;;
44722;SDS011;30451;48.638;10.624;2022-10-16T08:15:55;3.15;;;1.50;;
44722;SDS011;30451;48.638;10.624;2022-10-16T08:18:21;2.10;;;1.30;;
44722;SDS011;30451;48.638;10.624;2022-10-16T08:20:47;2.10;;;1.30;;
44722;SDS011;30451;48.638;10.624;2022-10-16T08:23:12;3.15;;;1.33;;
44722;SDS011;30451;48.638;10.624;2022-10-16T08:25:39;1.95;;;1.38;;
44722;SDS011;30451;48.638;10.624;2022-10-16T08:28:06;1.67;;;1.20;;
44722;SDS011;30451;48.638;10.624;2022-10-16T08:30:33;1.50;;;1.13;;
44722;SDS011;30451;48.638;10.624;2022-10-16T08:32:59;2.20;;;1.13;;
44722;SDS011;30451;48.638;10.624;2022-10-16T08:35:25;1.88;;;1.30;;
44722;SDS011;30451;48.638;10.624;2022-10-16T08:37:50;2.83;;;1.55;;
44722;SDS011;30451;48.638;10.624;2022-10-16T08:40:18;2.38;;;1.35;;
44722;SDS011;30451;48.638;10.624;2022-10-16T08:48:46;1.60;;;1.30;;
44722;SDS011;30451;48.638;10.624;2022-10-16T08:51:17;2.45;;;1.42;;
44722;SDS011;30451;48.638;10.624;2022-10-16T08:53:49;2.30;;;1.45;;
44722;SDS011;30451;48.638;10.624;2022-10-16T08:56:22;2.55;;;1.33;;
44722;SDS011;30451;48.638;10.624;2022-10-16T08:58:48;2.05;;;1.30;;
44722;SDS011;30451;48.638;10.624;2022-10-16T09:01:16;1.88;;;1.10;;
44722;SDS011;30451;48.638;10.624;2022-10-16T09:06:42;2.33;;;1.40;;
44722;SDS011;30451;48.638;10.624;2022-10-16T09:09:31;2.47;;;1.20;;
44722;SDS011;30451;48.638;10.624;2022-10-16T09:12:40;1.98;;;1.42;;
44722;SDS011;30451;48.638;10.624;2022-10-16T09:15:22;2.30;;;1.40;;
44722;SDS011;30451;48.638;10.624;2022-10-16T09:23:08;2.10;;;1.42;;
44722;SDS011;30451;48.638;10.624;2022-10-16T09:25:39;2.95;;;1.30;;
44722;SDS011;30451;48.638;10.624;2022-10-16T09:28:07;2.10;;;1.40;;
44722;SDS011;30451;48.638;10.624;2022-10-16T09:30:34;2.35;;;1.40;;
44722;SDS011;30451;48.638;10.624;2022-10-16T09:32:59;2.70;;;1.48;;
44722;SDS011;30451;48.638;10.624;2022-10-16T09:35:36;2.35;;;1.40;;
44722;SDS011;30451;48.638;10.624;2022-10-16T09:38:05;2.30;;;1.40;;
44722;SDS011;30451;48.638;10.624;2022-10-16T09:40:32;1.95;;;1.30;;
44722;SDS011;30451;48.638;10.624;2022-10-16T09:45:53;2.72;;;1.40;;
44722;SDS011;30451;48.638;10.624;2022-10-16T09:48:47;2.10;;;1.30;;
44722;SDS011;30451;48.638;10.624;2022-10-16T09:53:48;2.20;;;1.42;;
44722;SDS011;30451;48.638;10.624;2022-10-16T09:56:23;2.15;;;1.10;;
44722;SDS011;30451;48.638;10.624;2022-10-16T09:59:17;2.55;;;1.30;;
44722;SDS011;30451;48.638;10.624;2022-10-16T10:01:48;1.67;;;1.20;;
44722;SDS011;30451;48.638;10.624;2022-10-16T10:04:19;2.00;;;1.30;;
44722;SDS011;30451;48.638;10.624;2022-10-16T10:06:48;2.75;;;1.45;;
44722;SDS011;30451;48.638;10.624;2022-10-16T10:16:51;3.92;;;1.30;;
44722;SDS011;30451;48.638;10.624;2022-10-16T10:19:21;1.88;;;1.13;;
44722;SDS011;30451;48.638;10.624;2022-10-16T10:21:48;2.33;;;1.20;;
44722;SDS011;30451;48.638;10.624;2022-10-16T10:24:15;2.55;;;1.05;;
44722;SDS011;30451;48.638;10.624;2022-10-16T10:26:54;1.80;;;1.42;;
44722;SDS011;30451;48.638;10.624;2022-10-16T10:43:29;1.60;;;1.10;;
44722;SDS011;30451;48.638;10.624;2022-10-16T10:45:59;1.70;;;1.08;;
44722;SDS011;30451;48.638;10.624;2022-10-16T11:01:50;1.83;;;1.05;;
44722;SDS011;30451;48.638;10.624;2022-10-16T11:07:25;2.15;;;1.10;;
44722;SDS011;30451;48.638;10.624;2022-10-16T11:09:59;1.50;;;0.90;;
44722;SDS011;30451;48.638;10.624;2022-10-16T11:12:39;1.80;;;1.02;;
44722;SDS011;30451;48.638;10.624;2022-10-16T11:15:17;1.73;;;1.10;;
44722;SDS011;30451;48.638;10.624;2022-10-16T11:17:52;1.30;;;0.90;;
44722;SDS011;30451;48.638;10.624;2022-10-16T11:20:29;1.90;;;0.95;;
44722;SDS011;30451;48.638;10.624;2022-10-16T11:25:43;1.25;;;0.88;;
44722;SDS011;30451;48.638;10.624;2022-10-16T11:30:45;1.20;;;0.90;;
44722;SDS011;30451;48.638;10.624;2022-10-16T11:33:27;1.85;;;1.10;;
44722;SDS011;30451;48.638;10.624;2022-10-16T11:36:03;1.63;;;1.02;;
44722;SDS011;30451;48.638;10.624;2022-10-16T11:41:29;2.33;;;1.00;;
44722;SDS011;30451;48.638;10.624;2022-10-16T11:44:03;2.00;;;0.90;;
44722;SDS011;30451;48.638;10.624;2022-10-16T11:46:34;1.27;;;0.90;;
44722;SDS011;30451;48.638;10.624;2022-10-16T11:49:06;1.52;;;1.00;;
44722;SDS011;30451;48.638;10.624;2022-10-16T11:57:21;1.75;;;0.90;;
44722;SDS011;30451;48.638;10.624;2022-10-16T11:59:55;1.80;;;1.00;;
44722;SDS011;30451;48.638;10.624;2022-10-16T12:03:29;1.45;;;1.00;;
44722;SDS011;30451;48.638;10.624;2022-10-16T12:08:35;1.02;;;0.70;;
44722;SDS011;30451;48.638;10.624;2022-10-16T12:11:09;1.80;;;1.00;;
44722;SDS011;30451;48.638;10.624;2022-10-16T12:16:37;1.48;;;0.90;;
44722;SDS011;30451;48.638;10.624;2022-10-16T12:19:16;1.80;;;1.10;;
44722;SDS011;30451;48.638;10.624;2022-10-16T12:24:23;1.63;;;0.90;;
44722;SDS011;30451;48.638;10.624;2022-10-16T12:27:02;1.42;;;0.82;;
44722;SDS011;30451;48.638;10.624;2022-10-16T12:29:40;1.83;;;1.00;;
44722;SDS011;30451;48.638;10.624;2022-10-16T12:35:16;1.45;;;0.90;;
44722;SDS011;30451;48.638;10.624;2022-10-16T12:37:47;1.70;;;1.27;;
44722;SDS011;30451;48.638;10.624;2022-10-16T12:40:23;2.05;;;0.90;;
44722;SDS011;30451;48.638;10.624;2022-10-16T12:42:57;2.13;;;1.10;;
44722;SDS011;30451;48.638;10.624;2022-10-16T12:47:51;2.67;;;1.00;;
44722;SDS011;30451;48.638;10.624;2022-10-16T12:53:03;2.10;;;1.10;;
44722;SDS011;30451;48.638;10.624;2022-10-16T12:55:50;2.35;;;1.00;;
44722;SDS011;30451;48.638;10.624;2022-10-16T13:01:19;1.90;;;1.00;;
44722;SDS011;30451;48.638;10.624;2022-10-16T13:15:22;1.58;;;0.90;;
44722;SDS011;30451;48.638;10.624;2022-10-16T13:18:19;1.35;;;0.90;;
44722;SDS011;30451;48.638;10.624;2022-10-16T13:26:24;1.67;;;0.90;;
44722;SDS011;30451;48.638;10.624;2022-10-16T13:29:00;1.42;;;1.00;;
44722;SDS011;30451;48.638;10.624;2022-10-16T13:31:26;2.15;;;1.10;;
44722;SDS011;30451;48.638;10.624;2022-10-16T13:33:54;2.33;;;0.90;;
44722;SDS011;30451;48.638;10.624;2022-10-16T13:39:12;2.08;;;1.05;;
44722;SDS011;30451;48.638;10.624;2022-10-16T13:41:43;1.80;;;0.95;;
44722;SDS011;30451;48.638;10.624;2022-10-16T13:44:12;2.05;;;1.00;;
44722;SDS011;30451;48.638;10.624;2022-10-16T13:46:42;1.75;;;0.95;;
44722;SDS011;30451;48.638;10.624;2022-10-16T13:49:14;2.03;;;0.90;;
44722;SDS011;30451;48.638;10.624;2022-10-16T13:51:41;1.85;;;1.00;;
44722;SDS011;30451;48.638;10.624;2022-10-16T13:54:19;1.30;;;0.93;;
44722;SDS011;30451;48.638;10.624;2022-10-16T13:56:45;1.15;;;0.90;;
44722;SDS011;30451;48.638;10.624;2022-10-16T13:59:26;1.95;;;0.90;;
44722;SDS011;30451;48.638;10.624;2022-10-16T14:01:59;2.42;;;1.15;;
44722;SDS011;30451;48.638;10.624;2022-10-16T14:04:33;2.55;;;1.10;;
44722;SDS011;30451;48.638;10.624;2022-10-16T14:07:04;1.95;;;1.20;;
44722;SDS011;30451;48.638;10.624;2022-10-16T14:09:30;3.13;;;1.10;;
44722;SDS011;30451;48.638;10.624;2022-10-16T14:12:06;2.17;;;1.00;;
44722;SDS011;30451;48.638;10.624;2022-10-16T14:14:38;2.60;;;1.20;;
44722;SDS011;30451;48.638;10.624;2022-10-16T14:17:13;1.42;;;1.00;;
44722;SDS011;30451;48.638;10.624;2022-10-16T14:19:51;2.53;;;1.10;;
44722;SDS011;30451;48.638;10.624;2022-10-16T14:22:36;2.40;;;1.13;;
44722;SDS011;30451;48.638;10.624;2022-10-16T14:30:34;2.15;;;1.13;;
44722;SDS011;30451;48.638;10.624;2022-10-16T14:33:02;2.78;;;1.10;;
44722;SDS011;30451;48.638;10.624;2022-10-16T14:37:57;1.80;;;1.10;;
44722;SDS011;30451;48.638;10.624;2022-10-16T14:40:26;2.03;;;1.13;;
44722;SDS011;30451;48.638;10.624;2022-10-16T14:42:54;2.08;;;1.13;;
44722;SDS011;30451;48.638;10.624;2022-10-16T14:45:21;2.97;;;1.10;;
44722;SDS011;30451;48.638;10.624;2022-10-16T14:47:50;1.90;;;1.20;;
44722;SDS011;30451;48.638;10.624;2022-10-16T14:52:44;1.75;;;1.08;;
44722;SDS011;30451;48.638;10.624;2022-10-16T14:55:10;2.42;;;1.00;;
44722;SDS011;30451;48.638;10.624;2022-10-16T14:57:36;2.08;;;1.05;;
44722;SDS011;30451;48.638;10.624;2022-10-16T15:00:06;2.47;;;1.27;;
44722;SDS011;30451;48.638;10.624;2022-10-16T15:02:40;1.85;;;1.08;;
44722;SDS011;30451;48.638;10.624;2022-10-16T15:05:15;2.03;;;1.20;;
44722;SDS011;30451;48.638;10.624;2022-10-16T15:07:42;2.53;;;1.08;;
44722;SDS011;30451;48.638;10.624;2022-10-16T15:10:08;3.65;;;1.23;;
44722;SDS011;30451;48.638;10.624;2022-10-16T15:12:35;2.42;;;1.02;;
44722;SDS011;30451;48.638;10.624;2022-10-16T15:15:01;2.83;;;1.10;;
44722;SDS011;30451;48.638;10.624;2022-10-16T15:17:26;1.73;;;1.00;;
44722;SDS011;30451;48.638;10.624;2022-10-16T15:19:52;2.45;;;1.20;;
44722;SDS011;30451;48.638;10.624;2022-10-16T15:22:17;2.47;;;1.00;;
44722;SDS011;30451;48.638;10.624;2022-10-16T15:24:43;2.00;;;1.00;;
44722;SDS011;30451;48.638;10.624;2022-10-16T15:27:09;2.28;;;1.30;;
44722;SDS011;30451;48.638;10.624;2022-10-16T15:29:34;2.20;;;1.15;;
44722;SDS011;30451;48.638;10.624;2022-10-16T15:32:00;1.88;;;1.00;;
44722;SDS011;30451;48.638;10.624;2022-10-16T15:34:26;1.70;;;1.00;;
44722;SDS011;30451;48.638;10.624;2022-10-16T15:36:51;1.52;;;0.90;;
44722;SDS011;30451;48.638;10.624;2022-10-16T15:39:18;2.35;;;0.90;;
44722;SDS011;30451;48.638;10.624;2022-10-16T15:41:45;1.58;;;1.00;;
44722;SDS011;30451;48.638;10.624;2022-10-16T15:44:19;2.80;;;1.20;;
44722;SDS011;30451;48.638;10.624;2022-10-16T15:46:46;1.73;;;1.00;;
44722;SDS011;30451;48.638;10.624;2022-10-16T15:49:12;1.80;;;0.93;;
44722;SDS011;30451;48.638;10.624;2022-10-16T15:51:39;2.10;;;1.10;;
44722;SDS011;30451;48.638;10.624;2022-10-16T15:54:05;2.78;;;1.10;;
44722;SDS011;30451;48.638;10.624;2022-10-16T15:56:31;2.10;;;1.00;;
44722;SDS011;30451;48.638;10.624;2022-10-16T15:58:58;2.22;;;0.93;;
44722;SDS011;30451;48.638;10.624;2022-10-16T16:01:24;2.58;;;0.90;;
44722;SDS011;30451;48.638;10.624;2022-10-16T16:03:53;2.67;;;1.02;;
44722;SDS011;30451;48.638;10.624;2022-10-16T16:06:20;1.95;;;1.30;;
44722;SDS011;30451;48.638;10.624;2022-10-16T16:08:46;2.40;;;1.10;;
44722;SDS011;30451;48.638;10.624;2022-10-16T16:11:13;2.05;;;1.00;;
44722;SDS011;30451;48.638;10.624;2022-10-16T16:13:40;2.03;;;1.10;;
44722;SDS011;30451;48.638;10.624;2022-10-16T16:16:13;3.20;;;1.02;;
44722;SDS011;30451;48.638;10.624;2022-10-16T16:18:41;2.60;;;1.00;;
44722;SDS011;30451;48.638;10.624;2022-10-16T16:21:07;2.75;;;1.20;;
44722;SDS011;30451;48.638;10.624;2022-10-16T16:23:34;2.47;;;1.25;;
44722;SDS011;30451;48.638;10.624;2022-10-16T16:26:04;2.25;;;1.00;;
44722;SDS011;30451;48.638;10.624;2022-10-16T16:28:29;3.28;;;1.10;;
44722;SDS011;30451;48.638;10.624;2022-10-16T16:30:55;1.80;;;1.00;;
44722;SDS011;30451;48.638;10.624;2022-10-16T16:33:21;3.55;;;1.30;;
44722;SDS011;30451;48.638;10.624;2022-10-16T16:35:46;4.30;;;1.33;;
44722;SDS011;30451;48.638;10.624;2022-10-16T16:38:12;2.20;;;1.23;;
44722;SDS011;30451;48.638;10.624;2022-10-16T16:40:38;2.78;;;1.23;;
44722;SDS011;30451;48.638;10.624;2022-10-16T16:43:03;3.20;;;1.17;;
44722;SDS011;30451;48.638;10.624;2022-10-16T16:45:29;2.88;;;1.30;;
44722;SDS011;30451;48.638;10.624;2022-10-16T16:47:55;2.70;;;1.40;;
44722;SDS011;30451;48.638;10.624;2022-10-16T16:50:20;3.65;;;1.20;;
44722;SDS011;30451;48.638;10.624;2022-10-16T16:52:46;2.65;;;1.48;;
44722;SDS011;30451;48.638;10.624;2022-10-16T16:55:11;3.42;;;1.35;;
44722;SDS011;30451;48.638;10.624;2022-10-16T16:57:37;3.97;;;1.20;;
44722;SDS011;30451;48.638;10.624;2022-10-16T17:00:03;3.05;;;1.40;;
44722;SDS011;30451;48.638;10.624;2022-10-16T17:02:29;2.63;;;1.17;;
44722;SDS011;30451;48.638;10.624;2022-10-16T17:04:54;2.60;;;1.13;;